Time;durP1;ratioP1;P1;durP2;ratioP2;P2;SDS_P1;SDS_P2;PMS_P1;PMS_P2;Temp;Humidity;BMP_temperature;BMP_pressure;BME280_temperature;BME280_humidity;BME280_pressure;Samples;Min_cycle;Max_cycle;Signal;HPM_P1;HPM_P2
2021/08/10 00:01:01;;;;;;;8.30;6.25;;;;;;;22.47;82.22;99845.34;1735294;82;21016;-77
2021/08/10 00:03:27;;;;;;;7.03;6.45;;;;;;;22.47;82.25;99850.81;1723654;82;21081;-74
2021/08/10 00:05:54;;;;;;;9.00;7.03;;;;;;;22.45;82.33;99848.95;1702182;83;21105;-76
2021/08/10 00:08:20;;;;;;;7.67;6.87;;;;;;;22.41;82.45;99850.73;1719902;83;20977;-75
2021/08/10 00:10:50;;;;;;;7.72;7.05;;;;;;;22.35;82.63;99851.46;1721136;82;21008;-74
2021/08/10 00:13:20;;;;;;;7.60;6.90;;;;;;;22.33;82.85;99852.38;1721136;83;20926;-72
2021/08/10 00:15:47;;;;;;;11.33;7.58;;;;;;;22.29;83.16;99856.89;1721049;83;21012;-73
2021/08/10 00:18:14;;;;;;;7.50;6.80;;;;;;;22.24;83.52;99853.50;1721171;83;21541;-72
2021/08/10 00:20:40;;;;;;;8.38;7.47;;;;;;;22.17;83.86;99846.56;1700231;83;21020;-72
2021/08/10 00:23:07;;;;;;;8.63;7.70;;;;;;;22.14;84.06;99849.96;1721630;83;20973;-74
2021/08/10 00:25:33;;;;;;;15.98;7.25;;;;;;;22.11;84.41;99850.59;1741322;81;20997;-69
2021/08/10 00:28:00;;;;;;;9.30;7.80;;;;;;;22.08;84.51;99856.72;1744437;81;21028;-72
2021/08/10 00:30:27;;;;;;;8.30;7.60;;;;;;;22.01;84.95;99856.41;1733982;81;21119;-70
2021/08/10 00:32:53;;;;;;;6.92;6.25;;;;;;;21.97;85.21;99853.23;1754420;81;21524;-70
2021/08/10 00:35:20;;;;;;;7.53;6.33;;;;;;;21.92;85.57;99855.55;1714295;83;21111;-69
2021/08/10 00:37:47;;;;;;;8.15;7.08;;;;;;;21.84;86.11;99863.20;1730806;82;21617;-72
2021/08/10 00:40:15;;;;;;;8.13;7.33;;;;;;;21.82;86.37;99855.87;1719906;82;21005;-69
2021/08/10 00:42:41;;;;;;;6.92;6.17;;;;;;;21.82;86.39;99856.44;1707597;83;21951;-71
2021/08/10 00:45:09;;;;;;;7.33;6.42;;;;;;;21.82;86.42;99855.87;1727549;83;21001;-70
2021/08/10 00:47:37;;;;;;;11.38;7.65;;;;;;;21.79;86.60;99853.77;1742579;82;20966;-70
2021/08/10 00:50:06;;;;;;;8.28;6.83;;;;;;;21.73;87.09;99851.73;1740952;81;21056;-70
2021/08/10 00:52:35;;;;;;;7.35;6.75;;;;;;;21.68;87.42;99851.89;1732014;81;21651;-70
2021/08/10 00:55:03;;;;;;;7.67;6.80;;;;;;;21.68;87.47;99851.08;1716789;83;21120;-72
2021/08/10 00:57:29;;;;;;;8.43;7.45;;;;;;;21.69;87.47;99850.77;1729835;82;20992;-82
2021/08/10 00:59:56;;;;;;;7.85;6.97;;;;;;;21.69;87.53;99858.98;1713831;82;21043;-81
2021/08/10 01:02:23;;;;;;;7.58;6.83;;;;;;;21.66;87.81;99857.45;1726153;82;21100;-81
2021/08/10 01:04:53;;;;;;;7.72;7.00;;;;;;;21.63;87.94;99856.73;1700160;84;20955;-80
2021/08/10 01:07:42;;;;;;;7.95;6.95;;;;;;;21.61;88.08;99858.97;1700197;84;22285;-82
2021/08/10 01:10:18;;;;;;;7.03;5.87;;;;;;;21.59;88.20;99860.64;1682304;84;21098;-82
2021/08/10 01:12:54;;;;;;;7.28;6.67;;;;;;;21.59;88.19;99850.26;1636727;85;21012;-82
2021/08/10 01:15:24;;;;;;;7.37;6.78;;;;;;;21.60;88.17;99856.80;1681694;84;21042;-82
2021/08/10 01:18:02;;;;;;;9.63;6.97;;;;;;;21.58;88.31;99850.03;1681801;85;21882;-82
2021/08/10 01:21:15;;;;;;;12.80;8.35;;;;;;;21.55;88.50;99852.02;1681650;85;21194;-81
2021/08/10 01:23:44;;;;;;;6.53;6.03;;;;;;;21.50;88.76;99856.28;1681586;83;21078;-81
2021/08/10 01:26:50;;;;;;;6.00;5.42;;;;;;;21.47;89.00;99861.02;1659694;85;21752;-82
2021/08/10 01:29:30;;;;;;;7.12;6.50;;;;;;;21.43;89.36;99864.16;1670654;84;20986;-81
2021/08/10 01:31:58;;;;;;;8.45;7.62;;;;;;;21.41;89.50;99861.73;1682120;85;21507;-82
2021/08/10 01:34:42;;;;;;;10.55;7.70;;;;;;;21.41;89.49;99859.55;1659632;85;21502;-84
2021/08/10 01:37:22;;;;;;;9.23;7.90;;;;;;;21.27;90.67;99861.04;1659901;85;21061;-81
2021/08/10 01:39:57;;;;;;;8.58;7.85;;;;;;;21.06;92.35;99861.31;1659592;85;20986;-81
2021/08/10 01:42:26;;;;;;;11.90;8.13;;;;;;;20.93;93.45;99857.56;1681573;85;21602;-80
2021/08/10 01:44:56;;;;;;;8.55;7.70;;;;;;;20.84;94.30;99860.81;1663536;84;21021;-82
2021/08/10 01:47:26;;;;;;;8.85;8.13;;;;;;;20.79;94.84;99842.61;1677318;84;21176;-83
2021/08/10 01:49:53;;;;;;;7.25;6.60;;;;;;;20.79;95.01;99853.55;1680834;85;21095;-82
2021/08/10 01:52:22;;;;;;;8.85;7.55;;;;;;;20.89;94.19;99845.64;1708653;83;21042;-85
2021/08/10 01:54:51;;;;;;;7.53;6.92;;;;;;;20.93;93.42;99846.63;1702245;83;20977;-82
2021/08/10 01:57:18;;;;;;;13.80;7.85;;;;;;;20.93;93.25;99837.61;1722405;83;21002;-83
2021/08/10 01:59:49;;;;;;;8.63;7.87;;;;;;;20.88;93.45;99837.99;1703803;83;21050;-82
2021/08/10 02:02:15;;;;;;;8.60;7.87;;;;;;;20.88;93.45;99837.99;1704366;82;20997;-84
2021/08/10 02:04:44;;;;;;;8.05;7.30;;;;;;;20.88;93.52;99837.19;1710785;82;21029;-84
2021/08/10 02:07:10;;;;;;;10.35;6.83;;;;;;;20.88;93.53;99837.99;1733336;82;21372;-82
2021/08/10 02:09:38;;;;;;;8.48;7.20;;;;;;;20.92;93.43;99846.92;1715407;82;21087;-83
2021/08/10 02:12:06;;;;;;;9.33;8.25;;;;;;;20.94;93.20;99840.04;1705380;84;21100;-82
2021/08/10 02:14:34;;;;;;;8.00;7.40;;;;;;;20.95;92.96;99843.02;1716626;83;20957;-83
2021/08/10 02:17:06;;;;;;;9.05;8.13;;;;;;;20.77;94.01;99837.20;1687017;83;21015;-84
2021/08/10 02:19:34;;;;;;;8.13;7.42;;;;;;;20.64;95.15;99837.54;1711500;83;21067;-82
2021/08/10 02:22:11;;;;;;;9.40;8.40;;;;;;;20.56;96.14;99841.59;1711660;83;21535;-80
2021/08/10 02:24:51;;;;;;;10.75;7.55;;;;;;;20.49;96.84;99846.67;1711623;83;21056;-81
2021/08/10 02:27:27;;;;;;;9.33;8.53;;;;;;;20.45;97.21;99840.48;1675161;85;21520;-80
2021/08/10 02:29:54;;;;;;;10.75;9.23;;;;;;;20.44;97.31;99844.88;1693938;81;20991;-81
2021/08/10 02:32:25;;;;;;;10.35;8.03;;;;;;;20.39;97.68;99838.98;1702221;84;21551;-81
2021/08/10 02:34:54;;;;;;;9.20;8.30;;;;;;;20.33;98.16;99842.98;1717300;81;21004;-81
2021/08/10 02:37:21;;;;;;;7.80;7.20;;;;;;;20.38;97.95;99842.05;1761240;81;21708;-80
2021/08/10 02:39:48;;;;;;;8.50;7.72;;;;;;;20.43;96.86;99846.80;1739016;81;21066;-79
2021/08/10 02:42:17;;;;;;;11.68;7.75;;;;;;;20.44;96.61;99847.05;1744314;81;20952;-79
2021/08/10 02:44:46;;;;;;;7.42;6.78;;;;;;;20.45;96.66;99844.58;1699845;84;21564;-80
2021/08/10 02:47:14;;;;;;;7.50;6.90;;;;;;;20.48;96.66;99850.55;1700341;84;21047;-80
2021/08/10 02:49:41;;;;;;;7.55;6.92;;;;;;;20.50;96.48;99846.93;1718901;81;21154;-85
2021/08/10 02:52:09;;;;;;;7.87;7.15;;;;;;;20.50;96.21;99847.74;1726017;81;21480;-85
2021/08/10 02:54:36;;;;;;;7.20;6.50;;;;;;;20.51;96.03;99849.92;1704844;84;21153;-85
2021/08/10 02:57:07;;;;;;;7.35;6.75;;;;;;;20.49;95.93;99845.31;1701509;84;21547;-85
2021/08/10 02:59:48;;;;;;;7.67;6.75;;;;;;;20.49;95.81;99842.02;1722192;81;21022;-86
2021/08/10 03:02:20;;;;;;;8.45;7.62;;;;;;;20.52;95.67;99845.52;1730349;81;21083;-86
2021/08/10 03:04:58;;;;;;;7.58;6.97;;;;;;;20.54;95.30;99850.09;1674612;85;20912;-85
2021/08/10 03:07:26;;;;;;;7.78;7.05;;;;;;;20.55;95.04;99847.62;1674633;85;20990;-84
2021/08/10 03:09:57;;;;;;;9.88;8.85;;;;;;;20.50;94.70;99850.48;1653649;85;21066;-86
2021/08/10 03:12:28;;;;;;;7.87;7.27;;;;;;;20.50;94.70;99850.48;1672558;84;21024;-87
2021/08/10 03:14:56;;;;;;;12.10;7.83;;;;;;;20.33;95.59;99839.44;1692320;84;21004;-86
2021/08/10 03:17:26;;;;;;;7.35;6.75;;;;;;;20.25;96.22;99845.59;1655243;85;21078;-86
2021/08/10 03:19:55;;;;;;;7.40;6.78;;;;;;;20.35;95.80;99848.92;1650959;84;20992;-87
2021/08/10 03:22:22;;;;;;;7.50;6.80;;;;;;;20.35;95.80;99848.92;1646168;87;21571;-87
2021/08/10 03:24:48;;;;;;;10.30;7.22;;;;;;;20.40;95.01;99843.89;1649674;84;21088;-84
2021/08/10 03:27:15;;;;;;;8.13;7.42;;;;;;;20.43;94.62;99848.75;1686031;84;21921;-82
2021/08/10 03:29:43;;;;;;;7.15;6.45;;;;;;;20.50;93.79;99845.01;1693479;84;20999;-81
2021/08/10 03:32:13;;;;;;;7.15;6.55;;;;;;;20.50;93.79;99845.01;1676172;84;20951;-80
2021/08/10 03:34:41;;;;;;;7.60;6.78;;;;;;;20.54;93.68;99850.09;1674597;85;21034;-80
2021/08/10 03:37:08;;;;;;;6.92;6.22;;;;;;;20.56;93.39;99847.87;1674733;85;21611;-81
2021/08/10 03:39:34;;;;;;;6.00;5.45;;;;;;;20.56;93.39;99847.87;1650954;85;21181;-80
2021/08/10 03:42:03;;;;;;;7.20;6.53;;;;;;;20.61;92.84;99857.31;1625094;87;21036;-82
2021/08/10 03:44:30;;;;;;;6.97;6.37;;;;;;;20.66;92.23;99849.53;1646762;86;21040;-83
2021/08/10 03:46:57;;;;;;;6.75;6.15;;;;;;;20.69;91.86;99848.34;1645744;87;21068;-81
2021/08/10 03:49:26;;;;;;;6.67;6.17;;;;;;;20.75;91.53;99848.47;1633053;85;21040;-83
2021/08/10 03:51:54;;;;;;;6.60;6.08;;;;;;;20.78;90.87;99851.93;1672350;84;21288;-81
2021/08/10 03:54:21;;;;;;;10.25;6.40;;;;;;;20.84;90.63;99853.97;1674832;85;21025;-82
2021/08/10 03:56:50;;;;;;;9.15;6.08;;;;;;;20.85;89.86;99855.59;1693941;84;20989;-81
2021/08/10 03:59:17;;;;;;;6.90;6.30;;;;;;;20.86;89.75;99856.63;1698518;84;21125;-82
2021/08/10 04:01:48;;;;;;;8.08;5.80;;;;;;;20.86;89.73;99850.38;1698746;84;20985;-84
2021/08/10 04:04:16;;;;;;;6.78;6.17;;;;;;;20.92;89.53;99863.33;1726687;82;21127;-82
2021/08/10 04:06:44;;;;;;;9.20;6.10;;;;;;;20.92;89.61;99843.63;1695207;83;21079;-83
2021/08/10 04:09:10;;;;;;;6.55;6.00;;;;;;;20.93;89.52;99851.28;1707650;84;20954;-83
2021/08/10 04:11:41;;;;;;;6.17;5.58;;;;;;;20.95;89.31;99850.42;1708921;83;21136;-80
2021/08/10 04:14:09;;;;;;;6.85;6.15;;;;;;;20.97;89.00;99860.47;1707566;84;21059;-87
2021/08/10 04:16:47;;;;;;;10.28;7.37;;;;;;;20.87;89.68;99847.87;1707874;84;21579;-84
2021/08/10 04:19:14;;;;;;;6.65;6.05;;;;;;;20.72;90.69;99853.17;1698856;84;21101;-88
2021/08/10 04:21:43;;;;;;;6.78;6.17;;;;;;;20.69;91.03;99842.88;1683319;84;21160;-87
2021/08/10 04:24:09;;;;;;;6.67;5.67;;;;;;;20.74;90.60;99843.30;1683560;84;20987;-86
2021/08/10 04:26:37;;;;;;;5.92;5.42;;;;;;;20.76;90.52;99838.34;1683575;84;21038;-87
2021/08/10 04:29:04;;;;;;;6.92;6.25;;;;;;;20.78;90.63;99843.73;1683146;84;21100;-87
2021/08/10 04:31:33;;;;;;;6.67;5.72;;;;;;;20.83;90.39;99842.78;1707982;82;20944;-88
2021/08/10 04:34:00;;;;;;;8.43;6.00;;;;;;;20.86;90.01;99859.95;1709202;83;21544;-89
2021/08/10 04:36:26;;;;;;;6.03;5.53;;;;;;;20.88;89.54;99840.73;1685718;84;21027;-89
2021/08/10 04:38:54;;;;;;;7.85;5.97;;;;;;;20.93;89.29;99838.97;1707732;84;21540;-91
2021/08/10 04:41:21;;;;;;;6.70;5.92;;;;;;;21.00;89.06;99842.08;1708310;83;21015;-89
2021/08/10 04:43:51;;;;;;;5.42;4.92;;;;;;;21.06;88.62;99843.53;1703165;83;20983;-89
2021/08/10 04:46:22;;;;;;;6.53;5.92;;;;;;;21.13;88.12;99839.27;1703534;83;21039;-90
2021/08/10 04:48:48;;;;;;;5.87;5.37;;;;;;;21.22;87.85;99835.19;1715842;82;20946;-91
2021/08/10 04:51:15;;;;;;;5.62;5.12;;;;;;;21.35;87.13;99851.23;1678355;84;21098;-89
2021/08/10 04:53:44;;;;;;;9.60;5.50;;;;;;;21.43;86.41;99840.89;1708206;82;20964;-89
2021/08/10 04:56:10;;;;;;;6.65;5.97;;;;;;;21.52;86.03;99834.88;1735719;82;21478;-88
2021/08/10 04:58:38;;;;;;;5.40;5.00;;;;;;;21.60;85.35;99840.37;1712057;82;21025;-88
2021/08/10 05:01:04;;;;;;;6.58;5.97;;;;;;;21.59;84.75;99835.20;1683233;84;21019;-88
2021/08/10 05:03:33;;;;;;;5.97;5.50;;;;;;;21.61;84.45;99841.17;1730331;81;20971;-88
2021/08/10 05:05:59;;;;;;;7.58;6.17;;;;;;;21.67;84.25;99839.91;1693906;83;21137;-87
2021/08/10 05:08:27;;;;;;;6.05;5.55;;;;;;;21.58;84.31;99843.20;1712751;82;21650;-88
2021/08/10 05:10:56;;;;;;;7.67;6.10;;;;;;;21.49;85.23;99828.09;1712624;82;21019;-87
2021/08/10 05:13:25;;;;;;;5.90;5.30;;;;;;;21.55;85.19;99834.23;1710270;83;20998;-84
2021/08/10 05:15:52;;;;;;;7.05;6.08;;;;;;;21.60;84.50;99841.73;1712560;82;21510;-85
2021/08/10 05:18:19;;;;;;;9.63;6.33;;;;;;;21.62;84.63;99839.50;1742860;82;21063;-88
2021/08/10 05:20:45;;;;;;;5.42;4.92;;;;;;;21.66;84.50;99841.84;1683934;84;20978;-88
2021/08/10 05:23:13;;;;;;;6.08;5.00;;;;;;;21.71;84.39;99845.79;1684121;85;21442;-88
2021/08/10 05:25:41;;;;;;;6.58;5.50;;;;;;;21.76;84.05;99840.72;1665945;83;20933;-87
2021/08/10 05:28:09;;;;;;;12.40;5.90;;;;;;;21.78;83.93;99841.75;1678962;83;21046;-88
2021/08/10 05:30:37;;;;;;;7.12;6.53;;;;;;;21.78;84.11;99837.64;1712722;82;21026;-90
2021/08/10 05:33:05;;;;;;;6.95;6.03;;;;;;;21.84;83.87;99833.07;1710638;83;21018;-88
2021/08/10 05:35:33;;;;;;;5.62;5.03;;;;;;;21.95;83.38;99840.45;1712701;82;20931;-89
2021/08/10 05:38:00;;;;;;;5.17;4.78;;;;;;;22.06;83.00;99845.27;1712674;82;21786;-88
2021/08/10 05:40:27;;;;;;;6.33;5.67;;;;;;;22.15;82.61;99843.36;1712529;83;21080;-87
2021/08/10 05:42:55;;;;;;;6.67;6.08;;;;;;;22.26;82.09;99834.79;1671606;83;21046;-87
2021/08/10 05:45:22;;;;;;;6.47;5.72;;;;;;;22.32;81.88;99845.83;1712567;83;21507;-87
2021/08/10 05:47:49;;;;;;;8.70;5.65;;;;;;;22.39;81.57;99833.83;1693994;83;20970;-87
2021/08/10 05:50:17;;;;;;;6.03;5.42;;;;;;;22.46;80.97;99828.08;1712700;83;21010;-86
2021/08/10 05:52:44;;;;;;;9.10;7.00;;;;;;;22.49;80.74;99827.42;1743638;82;21534;-87
2021/08/10 05:55:11;;;;;;;8.58;5.83;;;;;;;22.42;80.35;99833.17;1713508;82;21525;-87
2021/08/10 05:57:38;;;;;;;7.95;7.15;;;;;;;22.43;80.56;99836.16;1714694;82;20907;-88
2021/08/10 06:00:07;;;;;;;5.47;4.92;;;;;;;22.53;80.03;99831.15;1713514;83;21023;-88
2021/08/10 06:02:36;;;;;;;6.67;6.08;;;;;;;22.45;80.26;99830.58;1692067;83;21534;-88
2021/08/10 06:05:07;;;;;;;11.43;6.28;;;;;;;22.49;80.44;99823.90;1691380;83;21534;-89
2021/08/10 06:07:33;;;;;;;9.88;5.42;;;;;;;22.57;80.07;99837.59;1712966;83;21097;-91
2021/08/10 06:10:00;;;;;;;5.53;5.03;;;;;;;22.66;79.07;99841.67;1712241;83;20961;-89
2021/08/10 06:12:29;;;;;;;5.62;5.12;;;;;;;22.73;78.72;99838.47;1685276;84;21107;-89
2021/08/10 06:14:57;;;;;;;6.70;5.95;;;;;;;22.77;78.25;99834.75;1684609;83;21050;-89
2021/08/10 06:17:25;;;;;;;5.83;5.33;;;;;;;22.80;77.62;99831.34;1682611;85;21045;-90
2021/08/10 06:19:52;;;;;;;9.55;6.35;;;;;;;22.87;77.42;99831.66;1661338;86;21106;-87
2021/08/10 06:22:18;;;;;;;5.75;5.08;;;;;;;22.95;76.90;99835.48;1644815;85;20905;-88
2021/08/10 06:24:45;;;;;;;8.90;5.40;;;;;;;23.02;76.65;99822.08;1643211;86;21147;-90
2021/08/10 06:27:12;;;;;;;7.92;6.45;;;;;;;23.12;76.54;99834.03;1665720;83;21540;-88
2021/08/10 06:29:40;;;;;;;8.08;5.22;;;;;;;23.22;75.27;99837.79;1645450;86;20975;-88
2021/08/10 06:32:07;;;;;;;5.58;4.72;;;;;;;23.30;74.71;99836.96;1663318;85;21095;-92
2021/08/10 06:34:34;;;;;;;8.63;6.37;;;;;;;23.35;73.93;99838.71;1713252;83;21017;-89
2021/08/10 06:37:01;;;;;;;9.10;6.78;;;;;;;23.33;73.69;99823.13;1695519;83;20920;-90
2021/08/10 06:39:30;;;;;;;5.33;4.72;;;;;;;23.32;74.01;99823.70;1693468;83;21097;-88
2021/08/10 06:41:59;;;;;;;5.28;4.78;;;;;;;23.44;74.10;99820.25;1693841;83;21045;-88
2021/08/10 06:44:27;;;;;;;6.10;4.37;;;;;;;23.58;73.39;99825.52;1704757;83;22017;-88
2021/08/10 06:46:56;;;;;;;5.40;4.25;;;;;;;23.60;73.23;99839.70;1682322;85;21054;-90
2021/08/10 06:49:24;;;;;;;5.50;5.00;;;;;;;23.61;72.92;99824.84;1703176;83;21066;-91
2021/08/10 06:51:50;;;;;;;6.25;4.22;;;;;;;23.62;72.92;99815.48;1693613;83;21592;-89
2021/08/10 06:54:18;;;;;;;5.20;4.55;;;;;;;23.68;72.86;99833.37;1712773;83;21120;-89
2021/08/10 06:56:55;;;;;;;12.70;4.67;;;;;;;23.73;71.62;99842.80;1693567;83;21067;-86
2021/08/10 06:59:23;;;;;;;5.35;4.85;;;;;;;23.78;72.08;99823.38;1712555;83;21113;-86
2021/08/10 07:01:51;;;;;;;6.33;5.00;;;;;;;23.83;72.03;99829.48;1712354;83;21061;-88
2021/08/10 07:04:17;;;;;;;13.53;6.10;;;;;;;23.89;71.52;99825.37;1719266;82;21581;-87
2021/08/10 07:06:45;;;;;;;4.70;4.30;;;;;;;23.86;70.35;99820.55;1735306;82;21064;-88
2021/08/10 07:09:16;;;;;;;6.58;5.08;;;;;;;23.89;70.90;99827.31;1710024;82;21074;-88
2021/08/10 07:11:46;;;;;;;5.20;4.72;;;;;;;23.91;71.15;99816.80;1704452;84;20984;-86
2021/08/10 07:14:12;;;;;;;9.35;5.55;;;;;;;23.97;71.49;99816.03;1704316;84;20929;-88
2021/08/10 07:16:43;;;;;;;5.55;5.05;;;;;;;24.02;70.86;99827.63;1725003;82;21497;-89
2021/08/10 07:19:10;;;;;;;5.33;4.80;;;;;;;23.99;70.03;99820.05;1735626;82;21037;-92
2021/08/10 07:21:36;;;;;;;5.60;4.90;;;;;;;24.01;70.00;99821.89;1712023;82;21184;-91
2021/08/10 07:24:06;;;;;;;5.08;4.65;;;;;;;24.12;69.82;99818.98;1731492;81;21256;-89
2021/08/10 07:26:33;;;;;;;5.22;4.72;;;;;;;24.17;69.57;99817.41;1654225;85;21527;-91
2021/08/10 07:29:00;;;;;;;5.33;4.83;;;;;;;24.18;70.12;99815.46;1735448;82;20970;-89
2021/08/10 07:31:28;;;;;;;5.78;5.28;;;;;;;24.20;70.24;99821.44;1733312;82;21025;-91
2021/08/10 07:33:55;;;;;;;4.28;3.95;;;;;;;24.26;70.05;99829.16;1735554;81;21021;-90
2021/08/10 07:36:23;;;;;;;6.47;4.62;;;;;;;24.33;69.88;99823.89;1734625;81;20968;-91
2021/08/10 07:38:50;;;;;;;6.03;5.17;;;;;;;24.42;69.32;99822.44;1711443;82;21565;-88
2021/08/10 07:41:17;;;;;;;5.12;4.65;;;;;;;24.50;68.83;99838.63;1704304;83;21096;-88
2021/08/10 07:43:44;;;;;;;5.92;4.25;;;;;;;24.54;68.87;99831.30;1704421;83;21020;-88
2021/08/10 07:46:10;;;;;;;5.05;4.65;;;;;;;24.59;67.53;99848.41;1677829;85;21579;-90
2021/08/10 07:48:37;;;;;;;6.10;5.08;;;;;;;24.65;67.12;99835.24;1711602;82;20997;-88
2021/08/10 07:51:12;;;;;;;5.50;5.00;;;;;;;24.63;67.13;99835.58;1735605;82;21021;-90
2021/08/10 07:53:39;;;;;;;6.47;4.80;;;;;;;24.67;66.85;99821.37;1730025;82;20971;-89
2021/08/10 07:56:09;;;;;;;5.75;5.22;;;;;;;24.70;65.15;99837.18;1746480;81;20874;-88
2021/08/10 07:58:35;;;;;;;10.40;5.35;;;;;;;24.79;65.51;99830.23;1711925;82;21294;-88
2021/08/10 08:01:05;;;;;;;5.62;4.60;;;;;;;24.77;66.13;99825.63;1712101;82;21056;-88
2021/08/10 08:03:33;;;;;;;5.15;4.75;;;;;;;24.76;66.36;99822.08;1713430;82;20956;-91
2021/08/10 08:06:01;;;;;;;7.87;4.40;;;;;;;24.81;66.51;99837.55;1699873;83;20958;-90
2021/08/10 08:08:31;;;;;;;4.70;3.65;;;;;;;24.87;65.97;99840.36;1712643;83;20961;-90
2021/08/10 08:10:58;;;;;;;4.83;4.28;;;;;;;24.94;64.76;99833.70;1713034;83;21458;-90
2021/08/10 08:13:26;;;;;;;5.40;4.62;;;;;;;24.98;65.18;99829.72;1712480;83;21032;-89
2021/08/10 08:15:54;;;;;;;5.78;4.92;;;;;;;25.02;65.09;99816.88;1712558;83;20977;-90
2021/08/10 08:18:22;;;;;;;5.87;5.33;;;;;;;25.06;65.10;99839.23;1694347;83;21009;-89
2021/08/10 08:20:49;;;;;;;5.35;4.85;;;;;;;25.10;64.51;99833.28;1689529;83;21002;-91
2021/08/10 08:23:17;;;;;;;5.28;4.33;;;;;;;25.23;64.00;99838.20;1664470;85;21041;-90
2021/08/10 08:25:44;;;;;;;5.35;4.45;;;;;;;25.16;63.79;99836.61;1665317;83;21617;-90
2021/08/10 08:28:12;;;;;;;8.45;4.33;;;;;;;25.04;63.78;99827.76;1695288;83;21007;-91
2021/08/10 08:30:42;;;;;;;4.10;3.80;;;;;;;25.03;64.30;99830.30;1713654;83;21038;-91
2021/08/10 08:33:11;;;;;;;4.60;4.20;;;;;;;25.10;64.21;99840.73;1718890;83;20912;-92
2021/08/10 08:35:39;;;;;;;3.72;3.42;;;;;;;25.21;63.15;99852.91;1689582;84;21158;-92
2021/08/10 08:38:07;;;;;;;8.15;4.55;;;;;;;25.29;62.26;99827.20;1662416;86;21514;-91
2021/08/10 08:40:39;;;;;;;6.35;4.10;;;;;;;25.35;61.62;99820.32;1713450;83;20985;-92
2021/08/10 08:43:07;;;;;;;;;;;;;;;25.40;62.24;99839.37;1714970;83;21026;-92
2021/08/10 08:45:34;;;;;;;8.10;4.70;;;;;;;25.48;61.02;99844.52;1718837;83;20167;-92
2021/08/10 08:48:02;;;;;;;4.20;3.77;;;;;;;25.52;59.95;99835.22;1713528;83;21507;-92
2021/08/10 08:50:32;;;;;;;5.03;4.53;;;;;;;25.50;58.77;99840.86;1713622;83;20976;-91
2021/08/10 08:52:58;;;;;;;4.95;4.28;;;;;;;25.47;59.47;99832.69;1683650;84;21075;-91
2021/08/10 08:55:25;;;;;;;5.67;4.05;;;;;;;25.48;60.15;99821.11;1658073;86;21045;-91
2021/08/10 08:57:51;;;;;;;4.05;3.62;;;;;;;25.51;59.96;99818.48;1670057;85;21005;-90
2021/08/10 09:00:18;;;;;;;4.17;3.87;;;;;;;25.60;59.22;99832.96;1673667;85;21166;-90
2021/08/10 09:02:45;;;;;;;4.08;3.75;;;;;;;25.68;58.83;99844.99;1648221;85;21063;-92
2021/08/10 09:05:15;;;;;;;4.97;3.65;;;;;;;25.69;59.07;99816.87;1651720;86;21504;-91
2021/08/10 09:07:43;;;;;;;3.90;3.55;;;;;;;25.70;59.22;99818.48;1698264;84;20980;-89
2021/08/10 09:10:18;;;;;;;9.03;3.65;;;;;;;25.72;59.12;99803.20;1700266;82;21027;-88
2021/08/10 09:12:50;;;;;;;3.62;3.37;;;;;;;25.76;59.46;99810.18;1652157;85;21170;-87
2021/08/10 09:15:32;;;;;;;4.65;4.00;;;;;;;25.85;59.37;99797.87;1650636;85;21007;-87
2021/08/10 09:18:08;;;;;;;5.67;4.12;;;;;;;25.94;58.97;99819.80;1680025;84;21561;-89
2021/08/10 09:20:35;;;;;;;6.85;4.45;;;;;;;26.02;57.84;99821.03;1701657;84;21042;-90
2021/08/10 09:23:05;;;;;;;4.03;3.62;;;;;;;26.05;57.39;99822.27;1706524;84;21204;-89
2021/08/10 09:25:35;;;;;;;7.22;3.75;;;;;;;26.07;57.38;99805.39;1705182;84;21529;-91
2021/08/10 09:28:07;;;;;;;4.35;4.05;;;;;;;26.08;57.98;99802.87;1698705;84;21126;-88
2021/08/10 09:30:34;;;;;;;4.58;4.17;;;;;;;26.09;57.73;99793.45;1713168;82;20945;-88
2021/08/10 09:33:04;;;;;;;4.45;4.12;;;;;;;26.12;58.17;99788.61;1736819;82;20965;-89
2021/08/10 09:35:36;;;;;;;5.42;4.42;;;;;;;26.17;57.66;99787.78;1735937;82;21009;-91
2021/08/10 09:38:16;;;;;;;6.20;4.37;;;;;;;26.23;58.00;99789.17;1687656;84;21637;-88
2021/08/10 09:40:48;;;;;;;4.33;4.03;;;;;;;26.35;56.84;99797.95;1706719;84;21030;-88
2021/08/10 09:43:35;;;;;;;4.08;3.70;;;;;;;26.41;56.34;99789.66;1706623;84;20987;-89
2021/08/10 09:46:19;;;;;;;4.70;3.40;;;;;;;26.42;55.80;99795.40;1706893;82;20945;-90
2021/08/10 09:48:56;;;;;;;5.50;4.97;;;;;;;26.42;56.43;99794.02;1704739;84;20988;-89
2021/08/10 09:51:29;;;;;;;7.42;4.12;;;;;;;26.45;56.08;99805.72;1705457;82;21152;-87
2021/08/10 09:54:05;;;;;;;7.42;4.35;;;;;;;26.51;55.78;99799.37;1677687;85;21042;-89
2021/08/10 09:56:55;;;;;;;7.80;4.20;;;;;;;26.60;56.71;99799.43;1707977;83;20957;-87
2021/08/10 09:59:29;;;;;;;4.08;3.77;;;;;;;26.69;56.99;99790.41;1706569;84;20999;-92
2021/08/10 10:01:59;;;;;;;4.37;3.60;;;;;;;26.78;56.45;99791.60;1706455;84;21032;-90
2021/08/10 10:04:30;;;;;;;4.87;4.47;;;;;;;26.83;56.03;99788.00;1712169;82;21101;-86
2021/08/10 10:07:10;;;;;;;4.75;3.72;;;;;;;26.86;55.40;99796.17;1672165;84;21011;-86
2021/08/10 10:09:37;;;;;;;4.80;4.00;;;;;;;26.81;55.24;99783.41;1678123;84;21511;-85
2021/08/10 10:12:05;;;;;;;4.95;3.95;;;;;;;26.88;55.37;99797.43;1735339;82;21037;-86
2021/08/10 10:14:31;;;;;;;4.22;3.35;;;;;;;26.91;54.96;99785.47;1728436;82;21001;-85
2021/08/10 10:17:01;;;;;;;5.08;3.60;;;;;;;26.91;54.54;99799.27;1720845;81;21551;-73
2021/08/10 10:19:27;;;;;;;4.47;3.30;;;;;;;26.88;54.77;99791.91;1683408;84;21625;-74
2021/08/10 10:22:03;;;;;;;4.67;4.28;;;;;;;26.90;54.69;99784.66;1704235;83;20971;-77
2021/08/10 10:24:31;;;;;;;4.00;3.70;;;;;;;26.93;54.79;99795.56;1704232;84;20995;-77
2021/08/10 10:27:04;;;;;;;4.22;3.87;;;;;;;26.97;54.45;99791.72;1703628;83;21136;-72
2021/08/10 10:29:31;;;;;;;9.58;4.60;;;;;;;27.00;53.86;99766.18;1678010;85;21797;-76
2021/08/10 10:31:57;;;;;;;6.20;5.03;;;;;;;27.04;54.08;99746.94;1735133;82;20930;-77
2021/08/10 10:34:24;;;;;;;4.40;4.10;;;;;;;27.12;54.13;99761.12;1735467;82;21036;-76
2021/08/10 10:36:52;;;;;;;4.60;3.42;;;;;;;27.20;53.90;99757.36;1736458;82;21183;-74
2021/08/10 10:39:28;;;;;;;7.70;3.65;;;;;;;27.31;54.13;99751.51;1728243;82;21551;-76
2021/08/10 10:41:58;;;;;;;6.97;4.12;;;;;;;27.43;53.75;99757.50;1679061;85;21152;-74
2021/08/10 10:44:46;;;;;;;9.20;5.00;;;;;;;27.53;53.05;99758.36;1735250;82;20980;-75
2021/08/10 10:47:31;;;;;;;4.55;4.22;;;;;;;27.54;52.24;99744.16;1734618;82;20974;-73
2021/08/10 10:50:00;;;;;;;;;;;;;;;27.58;52.30;99748.38;1732853;81;20999;-82
2021/08/10 10:52:30;;;;;;;4.20;3.80;;;;;;;27.60;51.60;99759.88;1729552;82;20200;-81
2021/08/10 10:54:57;;;;;;;4.08;3.77;;;;;;;27.66;51.91;99756.48;1735726;82;21147;-79
2021/08/10 10:57:36;;;;;;;4.55;4.25;;;;;;;27.77;52.20;99747.62;1735705;82;21009;-81
2021/08/10 11:00:14;;;;;;;5.95;4.22;;;;;;;27.87;52.28;99740.90;1736139;82;21005;-79
2021/08/10 11:02:40;;;;;;;5.08;3.52;;;;;;;27.91;51.39;99744.56;1705208;82;21009;-79
2021/08/10 11:05:17;;;;;;;5.30;4.40;;;;;;;28.00;51.88;99738.80;1682245;83;21461;-79
2021/08/10 11:07:52;;;;;;;5.62;4.10;;;;;;;28.13;51.08;99730.59;1688539;83;21233;-79
2021/08/10 11:10:47;;;;;;;4.95;3.80;;;;;;;28.23;50.33;99749.36;1681877;85;21003;-80
2021/08/10 11:13:23;;;;;;;3.55;3.25;;;;;;;28.28;49.85;99738.00;1679617;85;21112;-76
2021/08/10 11:15:53;;;;;;;4.22;3.92;;;;;;;28.23;49.38;99738.88;1683099;84;21026;-75
2021/08/10 11:18:23;;;;;;;6.83;4.00;;;;;;;28.21;49.72;99735.66;1681571;85;21527;-73
2021/08/10 11:21:04;;;;;;;4.90;4.40;;;;;;;28.22;49.80;99738.07;1681846;85;21076;-73
2021/08/10 11:23:39;;;;;;;4.83;4.22;;;;;;;28.23;49.91;99727.81;1682032;85;21045;-78
2021/08/10 11:26:13;;;;;;;4.80;3.92;;;;;;;28.29;50.14;99727.16;1683526;85;21053;-79
2021/08/10 11:28:49;;;;;;;4.70;4.30;;;;;;;28.39;49.64;99725.16;1681866;84;21067;-75
2021/08/10 11:31:42;;;;;;;5.03;4.53;;;;;;;28.42;49.14;99729.95;1682060;85;21082;-76
2021/08/10 11:34:33;;;;;;;4.30;4.00;;;;;;;28.43;48.84;99716.34;1688199;84;21157;-78
2021/08/10 11:37:23;;;;;;;3.65;3.40;;;;;;;28.40;48.64;99729.51;1665075;85;20953;-76
2021/08/10 11:40:05;;;;;;;4.35;3.95;;;;;;;28.47;48.66;99702.55;1686700;84;21072;-76
2021/08/10 11:42:31;;;;;;;5.05;3.62;;;;;;;28.49;48.96;99714.07;1681543;84;21522;-73
2021/08/10 11:44:58;;;;;;;4.53;4.12;;;;;;;28.61;48.76;99710.52;1664924;84;21039;-77
2021/08/10 11:47:24;;;;;;;7.17;4.03;;;;;;;28.74;48.31;99706.19;1662985;86;21157;-81